Time;durP1;ratioP1;P1;durP2;ratioP2;P2;SDS_P1;SDS_P2;PMS_P1;PMS_P2;Temp;Humidity;BMP_temperature;BMP_pressure;BME280_temperature;BME280_humidity;BME280_pressure;Samples;Min_cycle;Max_cycle;Signal;HPM_P1;HPM_P2
2024/04/19 00:00:10;;;;;;;4.93;1.70;;;10.40;99.90;;;;;;4380968;26;20004;-67
2024/04/19 00:02:11;;;;;;;2.60;1.38;;;10.30;99.90;;;;;;4399048;26;20870;-67
2024/04/19 00:04:16;;;;;;;2.58;1.20;;;10.30;99.90;;;;;;4405866;26;20442;-68
2024/04/19 00:06:16;;;;;;;2.67;1.35;;;10.30;99.90;;;;;;4410447;26;20078;-68
2024/04/19 00:08:18;;;;;;;4.05;1.58;;;10.30;99.90;;;;;;4400880;26;20466;-68
2024/04/19 00:10:18;;;;;;;6.40;1.92;;;10.20;99.90;;;;;;4395733;26;20401;-69
2024/04/19 00:12:19;;;;;;;3.65;1.35;;;10.20;99.90;;;;;;4414016;26;20021;-68
2024/04/19 00:14:20;;;;;;;5.95;1.77;;;10.20;99.90;;;;;;4399012;26;20364;-68
2024/04/19 00:16:22;;;;;;;6.63;1.90;;;10.10;99.90;;;;;;4407245;26;20024;-68
2024/04/19 00:18:24;;;;;;;6.40;2.08;;;10.10;99.90;;;;;;4412859;26;20012;-68
2024/04/19 00:20:25;;;;;;;13.00;2.08;;;10.10;99.90;;;;;;4404065;26;20680;-60
2024/04/19 00:22:26;;;;;;;4.50;1.77;;;10.00;99.90;;;;;;4408357;26;20016;-60
2024/04/19 00:24:26;;;;;;;5.45;1.70;;;9.90;99.90;;;;;;4410115;26;20017;-60
2024/04/19 00:26:27;;;;;;;4.45;1.60;;;9.90;99.90;;;;;;4403403;26;20017;-60
2024/04/19 00:28:27;;;;;;;3.97;1.50;;;9.90;99.90;;;;;;4412579;26;20029;-60
2024/04/19 00:30:28;;;;;;;5.15;1.63;;;9.90;99.90;;;;;;4402044;26;20009;-60
2024/04/19 00:32:29;;;;;;;3.42;1.55;;;9.90;99.90;;;;;;4412631;26;20458;-60
2024/04/19 00:34:30;;;;;;;5.60;1.70;;;9.90;99.90;;;;;;4409170;26;20012;-61
2024/04/19 00:36:30;;;;;;;5.63;2.05;;;9.90;99.90;;;;;;4377776;27;20018;-60
2024/04/19 00:38:31;;;;;;;3.25;1.40;;;9.80;99.90;;;;;;4401081;26;20025;-60
2024/04/19 00:40:32;;;;;;;5.63;1.88;;;9.80;99.90;;;;;;4415182;26;20009;-60
2024/04/19 00:42:33;;;;;;;3.40;1.65;;;9.70;99.90;;;;;;4401144;26;20083;-69
2024/04/19 00:44:34;;;;;;;4.68;1.80;;;9.70;99.90;;;;;;4385047;27;20010;-65
2024/04/19 00:46:35;;;;;;;7.78;1.98;;;9.70;99.90;;;;;;4403576;26;20518;-68
2024/04/19 00:48:37;;;;;;;7.63;2.22;;;9.70;99.90;;;;;;4361222;27;20022;-68
2024/04/19 00:50:39;;;;;;;5.45;1.80;;;9.70;99.90;;;;;;4408127;26;20008;-69
2024/04/19 00:52:40;;;;;;;5.65;2.33;;;9.50;99.90;;;;;;4384007;26;20083;-68
2024/04/19 00:54:41;;;;;;;5.55;1.73;;;9.60;99.90;;;;;;4378588;27;20463;-68
2024/04/19 00:56:43;;;;;;;3.38;1.90;;;9.50;99.90;;;;;;4410387;26;20001;-69
2024/04/19 00:58:44;;;;;;;6.07;1.90;;;9.50;99.90;;;;;;4403394;26;20020;-68
2024/04/19 01:00:48;;;;;;;6.63;2.80;;;9.40;99.90;;;;;;4391563;26;20443;-69
2024/04/19 01:02:49;;;;;;;4.10;1.67;;;9.50;99.90;;;;;;4401370;26;20009;-69
2024/04/19 01:04:50;;;;;;;2.75;1.70;;;9.40;99.90;;;;;;4402795;26;20579;-68
2024/04/19 01:06:51;;;;;;;8.25;2.15;;;9.50;99.90;;;;;;4369678;27;20462;-69
2024/04/19 01:08:51;;;;;;;4.35;1.77;;;9.40;99.90;;;;;;4410535;26;20103;-69
2024/04/19 01:10:52;;;;;;;2.92;1.65;;;9.40;99.90;;;;;;4397346;26;20017;-69
2024/04/19 01:12:53;;;;;;;2.83;1.77;;;9.50;99.90;;;;;;4402963;26;20024;-69
2024/04/19 01:14:54;;;;;;;7.47;2.13;;;9.40;99.90;;;;;;4404033;26;20485;-69
2024/04/19 01:16:58;;;;;;;2.30;1.63;;;9.30;99.90;;;;;;4364995;26;20018;-69
2024/04/19 01:18:59;;;;;;;4.78;2.10;;;9.30;99.90;;;;;;4409227;26;20013;-69
2024/04/19 01:21:05;;;;;;;4.80;1.75;;;9.30;99.90;;;;;;4406457;26;20013;-69
2024/04/19 01:23:11;;;;;;;4.20;2.10;;;9.30;99.90;;;;;;4407586;26;20015;-69
2024/04/19 01:25:26;;;;;;;4.03;2.20;;;9.20;99.90;;;;;;4410694;26;20474;-70
2024/04/19 01:27:27;;;;;;;3.63;2.00;;;9.30;99.90;;;;;;4400694;26;20023;-70
2024/04/19 01:29:27;;;;;;;2.90;1.83;;;9.20;99.90;;;;;;4369479;27;20026;-68
2024/04/19 01:31:28;;;;;;;4.15;2.15;;;9.20;99.90;;;;;;4402762;26;20030;-68
2024/04/19 01:33:29;;;;;;;5.05;2.10;;;9.20;99.90;;;;;;4414143;26;20099;-68
2024/04/19 01:35:29;;;;;;;4.00;2.15;;;9.10;99.90;;;;;;4381669;27;20005;-68
2024/04/19 01:37:30;;;;;;;4.18;2.20;;;9.20;99.90;;;;;;4412496;26;20025;-68
2024/04/19 01:39:31;;;;;;;4.03;2.45;;;9.20;99.90;;;;;;4408135;26;20005;-69
2024/04/19 01:41:32;;;;;;;4.47;1.88;;;9.20;99.90;;;;;;4409012;26;20017;-69
2024/04/19 01:43:32;;;;;;;5.10;2.38;;;9.10;99.90;;;;;;4409312;26;20036;-68
2024/04/19 01:45:33;;;;;;;3.47;1.70;;;9.10;99.90;;;;;;4409383;26;20020;-68
2024/04/19 01:47:35;;;;;;;3.28;1.70;;;9.10;99.90;;;;;;4411535;26;20445;-69
2024/04/19 01:49:35;;;;;;;4.40;2.03;;;9.10;99.90;;;;;;4408360;26;20018;-68
2024/04/19 01:51:36;;;;;;;3.22;2.10;;;9.10;99.90;;;;;;4413812;26;20041;-68
2024/04/19 01:53:37;;;;;;;6.10;2.05;;;9.00;99.90;;;;;;4414945;26;20446;-68
2024/04/19 01:55:37;;;;;;;4.15;2.53;;;8.90;99.90;;;;;;4405668;26;20091;-68
2024/04/19 01:57:38;;;;;;;2.85;1.75;;;8.90;99.90;;;;;;4410881;26;21015;-68
2024/04/19 01:59:38;;;;;;;4.65;2.00;;;8.90;99.90;;;;;;4412744;26;20040;-69
2024/04/19 02:01:39;;;;;;;6.28;2.20;;;9.00;99.90;;;;;;4402175;26;20015;-68
2024/04/19 02:03:40;;;;;;;4.63;2.10;;;8.90;99.90;;;;;;4383389;26;20005;-62
2024/04/19 02:05:41;;;;;;;5.78;2.47;;;8.90;99.90;;;;;;4409648;26;20028;-65
2024/04/19 02:07:42;;;;;;;7.05;2.28;;;8.90;99.90;;;;;;4405991;26;20408;-69
2024/04/19 02:09:42;;;;;;;5.10;2.25;;;8.90;99.90;;;;;;4407641;26;20139;-69
2024/04/19 02:11:43;;;;;;;5.10;2.20;;;8.90;99.90;;;;;;4404368;26;20005;-65
2024/04/19 02:13:44;;;;;;;3.85;2.30;;;8.90;99.90;;;;;;4411701;26;20696;-72
2024/04/19 02:15:44;;;;;;;6.47;2.45;;;8.90;99.90;;;;;;4400609;26;20065;-69
2024/04/19 02:17:48;;;;;;;5.28;2.38;;;8.80;99.90;;;;;;4410044;26;19997;-62
2024/04/19 02:19:49;;;;;;;7.10;2.58;;;8.80;99.90;;;;;;4413665;26;20009;-68
2024/04/19 02:21:49;;;;;;;3.33;2.33;;;8.70;99.90;;;;;;4408428;26;20385;-71
2024/04/19 02:23:50;;;;;;;2.95;2.58;;;8.80;99.90;;;;;;4410167;26;20005;-61
2024/04/19 02:25:51;;;;;;;4.40;2.47;;;8.80;99.90;;;;;;4412828;26;20009;-61
2024/04/19 02:32:30;;;;;;;8.07;3.25;;;8.80;99.90;;;;;;4415405;26;20430;-68
2024/04/19 02:34:31;;;;;;;4.70;2.97;;;8.80;99.90;;;;;;4413108;26;20012;-68
2024/04/19 02:36:32;;;;;;;5.95;3.13;;;8.80;99.90;;;;;;4401606;26;21066;-61
2024/04/19 02:38:34;;;;;;;6.18;3.22;;;8.70;99.90;;;;;;4406940;26;20467;-61
2024/04/19 02:40:35;;;;;;;4.60;2.80;;;8.60;99.90;;;;;;4395043;26;20006;-62
2024/04/19 02:42:35;;;;;;;3.58;2.28;;;8.70;99.90;;;;;;4392641;26;20636;-69
2024/04/19 02:44:36;;;;;;;7.85;3.35;;;8.70;99.90;;;;;;4403801;26;20023;-69
2024/04/19 02:46:37;;;;;;;8.80;3.38;;;8.70;99.90;;;;;;4404450;26;20014;-65
2024/04/19 02:48:38;;;;;;;6.22;3.13;;;8.70;99.90;;;;;;4370294;26;20022;-68
2024/04/19 02:50:39;;;;;;;6.00;3.03;;;8.80;99.90;;;;;;4399578;26;20005;-61
2024/04/19 02:52:40;;;;;;;4.45;2.83;;;8.80;99.90;;;;;;4404615;26;20467;-70
2024/04/19 02:54:41;;;;;;;8.48;3.45;;;8.80;99.90;;;;;;4407826;26;20053;-71
2024/04/19 02:56:41;;;;;;;4.75;2.97;;;8.80;99.90;;;;;;4407036;26;20001;-69
2024/04/19 02:58:42;;;;;;;4.35;2.70;;;8.90;99.90;;;;;;4403919;26;20086;-69
2024/04/19 03:00:43;;;;;;;4.50;2.88;;;8.90;99.90;;;;;;4412371;26;20010;-62
2024/04/19 03:02:44;;;;;;;10.68;3.90;;;8.90;99.90;;;;;;4407447;26;20449;-69
2024/04/19 03:04:45;;;;;;;6.43;3.40;;;8.90;99.90;;;;;;4400271;26;20096;-68
2024/04/19 03:06:45;;;;;;;6.90;3.55;;;8.90;99.90;;;;;;4399458;26;20034;-68
2024/04/19 03:08:46;;;;;;;4.90;3.10;;;8.80;99.90;;;;;;4411420;26;20016;-66
2024/04/19 03:10:47;;;;;;;6.88;3.40;;;8.80;99.90;;;;;;4401888;26;20013;-61
2024/04/19 03:12:48;;;;;;;7.15;3.63;;;8.80;99.90;;;;;;4392740;26;20349;-61
2024/04/19 03:14:48;;;;;;;5.00;3.05;;;8.80;99.90;;;;;;4401102;26;20511;-61
2024/04/19 03:16:51;;;;;;;6.65;3.40;;;8.80;99.90;;;;;;4407058;26;20009;-68
2024/04/19 03:18:52;;;;;;;7.28;3.88;;;8.70;99.90;;;;;;4400435;26;20536;-69
2024/04/19 03:20:59;;;;;;;9.32;3.50;;;8.60;99.90;;;;;;4390191;26;20044;-61
2024/04/19 03:22:59;;;;;;;6.05;3.03;;;8.60;99.90;;;;;;4372011;27;20467;-69
2024/04/19 03:25:00;;;;;;;4.93;2.80;;;8.60;99.90;;;;;;4393510;26;20052;-68
2024/04/19 03:27:02;;;;;;;3.20;2.58;;;8.60;99.90;;;;;;4392160;26;20729;-65
2024/04/19 03:29:03;;;;;;;4.40;3.03;;;8.60;99.90;;;;;;4380948;27;20014;-66
2024/04/19 03:31:08;;;;;;;4.63;2.90;;;8.60;99.90;;;;;;4400447;26;20083;-61
2024/04/19 03:33:09;;;;;;;5.18;2.97;;;8.60;99.90;;;;;;4388824;26;20020;-62
2024/04/19 03:35:09;;;;;;;6.05;3.20;;;8.60;99.90;;;;;;4403784;26;20009;-67
2024/04/19 03:37:10;;;;;;;4.63;2.90;;;8.50;99.90;;;;;;4402174;26;20075;-73
2024/04/19 03:39:10;;;;;;;4.35;2.75;;;8.50;99.90;;;;;;4401550;26;20011;-62
2024/04/19 03:41:11;;;;;;;7.10;2.90;;;8.50;99.90;;;;;;4406630;26;20009;-62
2024/04/19 03:43:12;;;;;;;6.13;3.25;;;8.50;99.90;;;;;;4402300;26;20457;-66
2024/04/19 03:47:33;;;;;;;6.50;3.28;;;8.50;99.90;;;;;;4396376;26;20024;-65
2024/04/19 03:49:33;;;;;;;4.63;2.70;;;8.40;99.90;;;;;;4405337;26;20040;-67
2024/04/19 03:51:34;;;;;;;6.93;2.95;;;8.40;99.90;;;;;;4410270;26;20445;-71
2024/04/19 03:53:35;;;;;;;5.95;2.50;;;8.40;99.90;;;;;;4413586;26;20009;-69
2024/04/19 03:55:36;;;;;;;4.10;2.50;;;8.40;99.90;;;;;;4391796;26;20016;-62
2024/04/19 03:57:36;;;;;;;4.55;2.75;;;8.40;99.90;;;;;;4402874;26;20654;-65
2024/04/19 03:59:39;;;;;;;3.67;2.90;;;8.40;99.90;;;;;;4420653;26;20054;-65
2024/04/19 04:01:39;;;;;;;5.28;3.00;;;8.40;99.90;;;;;;4446614;26;20052;-67
2024/04/19 04:03:40;;;;;;;4.32;2.50;;;8.40;99.90;;;;;;4454788;26;20154;-61
2024/04/19 04:05:41;;;;;;;5.10;2.65;;;8.40;99.90;;;;;;4451114;26;20015;-67
2024/04/19 04:07:41;;;;;;;5.72;3.10;;;8.40;99.90;;;;;;4440629;26;20008;-68
2024/04/19 04:09:42;;;;;;;4.82;2.97;;;8.40;99.90;;;;;;4465761;26;20008;-68
2024/04/19 04:11:42;;;;;;;7.35;3.00;;;8.40;99.90;;;;;;4431934;26;20016;-68
2024/04/19 04:13:43;;;;;;;5.72;2.67;;;8.40;99.90;;;;;;4426275;26;20016;-68
2024/04/19 04:15:44;;;;;;;5.70;3.00;;;8.40;99.90;;;;;;4449359;26;20016;-68
2024/04/19 04:17:45;;;;;;;3.20;2.30;;;8.30;99.90;;;;;;4431566;26;20074;-68
2024/04/19 04:19:45;;;;;;;5.18;2.75;;;8.40;99.90;;;;;;4459122;26;20016;-68
2024/04/19 04:21:46;;;;;;;5.53;2.53;;;8.40;99.90;;;;;;4460953;26;20019;-68
2024/04/19 04:23:47;;;;;;;3.55;2.40;;;8.50;99.90;;;;;;4445934;26;20035;-68
2024/04/19 04:25:47;;;;;;;5.75;2.80;;;8.50;99.90;;;;;;4453160;26;20086;-68
2024/04/19 04:27:48;;;;;;;4.40;2.60;;;8.40;99.90;;;;;;4455926;26;20456;-68
2024/04/19 04:29:48;;;;;;;5.95;2.67;;;8.50;99.90;;;;;;4421494;26;20009;-68
2024/04/19 04:31:49;;;;;;;5.25;3.00;;;8.50;99.90;;;;;;4448807;26;20035;-68
2024/04/19 04:33:50;;;;;;;4.18;2.85;;;8.40;99.90;;;;;;4456327;26;20569;-68
2024/04/19 04:35:50;;;;;;;6.00;3.00;;;8.40;99.90;;;;;;4424396;26;20008;-68
2024/04/19 04:37:51;;;;;;;4.03;2.88;;;8.40;99.90;;;;;;4418290;26;20106;-68
2024/04/19 04:39:51;;;;;;;4.97;2.70;;;8.40;99.90;;;;;;4462940;26;20114;-68
2024/04/19 04:41:52;;;;;;;3.53;2.58;;;8.30;99.90;;;;;;4455505;26;20622;-68
2024/04/19 04:43:53;;;;;;;6.40;3.42;;;8.30;99.90;;;;;;4463885;26;20004;-68
2024/04/19 04:45:53;;;;;;;4.72;2.90;;;8.30;99.90;;;;;;4454515;26;20003;-68
2024/04/19 04:47:54;;;;;;;8.43;2.50;;;8.30;99.90;;;;;;4425557;26;20387;-69
2024/04/19 04:49:55;;;;;;;7.55;3.05;;;8.40;99.90;;;;;;4453045;26;20000;-70
2024/04/19 04:51:55;;;;;;;4.78;2.65;;;8.40;99.90;;;;;;4448699;26;20034;-70
2024/04/19 04:53:56;;;;;;;3.90;2.40;;;8.40;99.90;;;;;;4456452;26;20004;-70
2024/04/19 04:55:57;;;;;;;4.13;2.38;;;8.40;99.90;;;;;;4448361;26;20046;-70
2024/04/19 04:57:59;;;;;;;3.67;2.50;;;8.40;99.90;;;;;;4449882;26;20011;-70
2024/04/19 05:00:00;;;;;;;4.60;2.65;;;8.40;99.90;;;;;;4450003;26;20015;-65
2024/04/19 05:02:00;;;;;;;4.75;2.60;;;8.40;99.90;;;;;;4421826;26;20015;-65
2024/04/19 05:04:01;;;;;;;3.13;2.20;;;8.40;99.90;;;;;;4441153;26;20012;-65
2024/04/19 05:06:02;;;;;;;6.60;2.90;;;8.40;99.90;;;;;;4409067;26;20669;-65
2024/04/19 05:08:02;;;;;;;2.83;2.10;;;8.50;99.90;;;;;;4458243;26;20023;-65
2024/04/19 05:10:03;;;;;;;5.50;2.85;;;8.40;99.90;;;;;;4418749;26;20012;-65
2024/04/19 05:12:04;;;;;;;3.53;2.80;;;8.40;99.90;;;;;;4456735;26;20044;-65
2024/04/19 05:14:05;;;;;;;3.13;2.50;;;8.40;99.90;;;;;;4436202;26;20055;-65
2024/04/19 05:16:05;;;;;;;2.38;2.15;;;8.50;99.90;;;;;;4460195;26;20016;-65
2024/04/19 05:18:06;;;;;;;6.28;2.72;;;8.50;99.90;;;;;;4451412;26;20018;-65
2024/04/19 05:20:07;;;;;;;3.53;2.25;;;8.50;99.90;;;;;;4422957;26;20397;-67
2024/04/19 05:22:08;;;;;;;3.75;2.42;;;8.50;99.90;;;;;;4422170;26;20465;-65
2024/04/19 05:24:08;;;;;;;6.85;2.67;;;8.50;99.90;;;;;;4452047;26;20000;-65
2024/04/19 05:26:09;;;;;;;4.78;2.47;;;8.50;99.90;;;;;;4446516;26;20442;-66
2024/04/19 05:28:09;;;;;;;4.78;2.83;;;8.60;99.90;;;;;;4400494;26;20012;-65
2024/04/19 05:30:10;;;;;;;3.97;2.75;;;8.50;99.90;;;;;;4422822;26;20028;-66
2024/04/19 05:32:11;;;;;;;4.10;2.40;;;8.50;99.90;;;;;;4388232;26;20020;-65
2024/04/19 05:34:12;;;;;;;3.55;2.25;;;8.50;99.90;;;;;;4453013;26;20008;-65
2024/04/19 05:36:12;;;;;;;4.45;2.40;;;8.50;99.90;;;;;;4453028;26;20469;-66
2024/04/19 05:38:13;;;;;;;3.08;1.88;;;8.60;99.90;;;;;;4415216;26;20016;-65
2024/04/19 05:40:13;;;;;;;4.53;2.25;;;8.50;99.90;;;;;;4424572;26;20000;-65
2024/04/19 05:42:14;;;;;;;4.13;2.35;;;8.60;99.90;;;;;;4449570;26;20007;-65
2024/04/19 05:44:18;;;;;;;2.25;2.05;;;8.60;99.90;;;;;;4418125;26;20005;-66
2024/04/19 05:46:20;;;;;;;4.35;2.70;;;8.60;99.90;;;;;;4427362;26;20004;-65
2024/04/19 05:48:20;;;;;;;2.70;2.08;;;8.70;99.90;;;;;;4456054;26;20012;-65
2024/04/19 05:50:21;;;;;;;3.20;2.35;;;8.70;99.90;;;;;;4427344;26;20004;-65
2024/04/19 05:52:22;;;;;;;2.80;2.15;;;8.70;99.90;;;;;;4436764;26;20331;-66
2024/04/19 05:54:22;;;;;;;3.05;2.35;;;8.70;99.90;;;;;;4417500;26;20016;-65
2024/04/19 05:56:23;;;;;;;3.63;1.88;;;8.70;99.90;;;;;;4454919;26;20005;-66
2024/04/19 05:58:24;;;;;;;3.10;1.85;;;8.70;99.90;;;;;;4460736;26;20605;-65
2024/04/19 06:00:24;;;;;;;3.35;2.50;;;8.70;99.90;;;;;;4449878;26;20004;-65
2024/04/19 06:02:25;;;;;;;3.00;2.13;;;8.70;99.90;;;;;;4470062;26;20455;-65
2024/04/19 06:04:26;;;;;;;2.97;2.30;;;8.70;99.90;;;;;;4455783;26;20040;-65
2024/04/19 06:06:26;;;;;;;3.13;2.13;;;8.70;99.90;;;;;;4457214;26;20015;-67
2024/04/19 06:08:27;;;;;;;2.40;2.10;;;8.80;99.90;;;;;;4466354;26;20148;-68
2024/04/19 06:10:27;;;;;;;4.28;2.28;;;8.80;99.90;;;;;;4454357;26;20011;-65
2024/04/19 06:12:28;;;;;;;3.38;2.05;;;8.80;99.90;;;;;;4450395;26;20005;-66
2024/04/19 06:14:29;;;;;;;1.77;1.65;;;8.80;99.90;;;;;;4450982;26;20016;-65
2024/04/19 06:16:29;;;;;;;3.40;1.90;;;8.80;99.90;;;;;;4452121;26;20054;-65
2024/04/19 06:18:30;;;;;;;3.28;1.83;;;8.90;99.90;;;;;;4463861;26;20010;-65
2024/04/19 06:20:31;;;;;;;3.65;1.80;;;8.90;99.90;;;;;;4451698;26;20353;-65
2024/04/19 06:22:31;;;;;;;3.15;1.95;;;8.90;99.90;;;;;;4450243;26;20015;-65
2024/04/19 06:24:32;;;;;;;2.35;2.00;;;8.90;99.90;;;;;;4449194;26;20467;-66
2024/04/19 06:26:32;;;;;;;3.75;1.70;;;8.90;99.90;;;;;;4454921;26;20015;-66
2024/04/19 06:28:35;;;;;;;2.00;1.80;;;9.00;99.90;;;;;;4456735;26;20043;-66
2024/04/19 06:30:36;;;;;;;;;;;9.00;99.90;;;;;;4421042;26;20016;-66
2024/04/19 06:32:36;;;;;;;1.92;1.55;;;9.00;99.90;;;;;;4451036;26;20354;-66
2024/04/19 06:34:37;;;;;;;2.70;1.90;;;9.00;99.90;;;;;;4446364;26;20015;-66
2024/04/19 06:36:37;;;;;;;1.88;1.70;;;9.00;99.90;;;;;;4454701;26;20529;-66
2024/04/19 06:38:38;;;;;;;1.60;1.42;;;9.10;99.90;;;;;;4451384;26;20457;-65
2024/04/19 06:40:39;;;;;;;2.40;1.90;;;9.10;99.90;;;;;;4440455;26;20015;-66
2024/04/19 06:42:40;;;;;;;1.80;1.60;;;9.10;99.90;;;;;;4443696;26;20081;-66
2024/04/19 06:44:41;;;;;;;2.60;1.80;;;9.10;99.90;;;;;;4441590;26;20012;-66
2024/04/19 06:46:41;;;;;;;1.63;1.52;;;9.10;99.90;;;;;;4439907;26;20004;-66
2024/04/19 06:48:42;;;;;;;1.30;1.20;;;9.10;99.90;;;;;;4440860;26;20430;-65
2024/04/19 06:50:43;;;;;;;1.90;1.75;;;9.10;99.90;;;;;;4439388;26;20020;-65
2024/04/19 06:52:43;;;;;;;2.45;1.80;;;9.10;99.90;;;;;;4439702;26;20040;-66
2024/04/19 06:54:44;;;;;;;2.33;1.80;;;9.10;99.90;;;;;;4443558;26;21052;-65
2024/04/19 06:56:45;;;;;;;3.70;1.98;;;9.10;99.90;;;;;;4440701;26;20023;-66
2024/04/19 06:58:48;;;;;;;1.80;1.60;;;9.10;99.90;;;;;;4433497;26;20461;-66
2024/04/19 07:00:50;;;;;;;1.80;1.50;;;9.10;99.90;;;;;;4404024;26;20020;-66
2024/04/19 07:02:51;;;;;;;2.03;1.80;;;9.10;99.90;;;;;;4449132;26;20016;-66
2024/04/19 07:04:52;;;;;;;1.85;1.65;;;9.20;99.90;;;;;;4442741;26;20012;-66
2024/04/19 07:06:53;;;;;;;2.85;2.05;;;9.20;99.90;;;;;;4443325;26;20019;-65
2024/04/19 07:08:53;;;;;;;2.10;1.90;;;9.20;99.90;;;;;;4440917;26;20424;-66
2024/04/19 07:10:54;;;;;;;2.20;1.80;;;9.20;99.90;;;;;;4432910;26;20023;-67
2024/04/19 07:12:55;;;;;;;2.00;1.80;;;9.20;99.90;;;;;;4442072;26;20094;-66
2024/04/19 07:14:55;;;;;;;2.58;1.95;;;9.20;99.90;;;;;;4439824;26;20023;-66
2024/04/19 07:16:56;;;;;;;2.33;1.95;;;9.30;99.90;;;;;;4444431;26;20004;-66
2024/04/19 07:18:56;;;;;;;6.15;2.30;;;9.30;99.90;;;;;;4443179;26;20353;-68
2024/04/19 07:20:57;;;;;;;4.22;2.38;;;9.40;99.90;;;;;;4437915;26;20020;-72
2024/04/19 07:22:58;;;;;;;3.65;2.50;;;9.40;99.90;;;;;;4441198;26;20012;-72
2024/04/19 07:24:58;;;;;;;2.75;2.35;;;9.40;99.90;;;;;;4439447;26;20050;-73
2024/04/19 07:26:59;;;;;;;2.55;2.25;;;9.40;99.90;;;;;;4410835;26;20113;-72
2024/04/19 07:29:00;;;;;;;3.20;2.17;;;9.40;99.90;;;;;;4440419;26;20004;-73
2024/04/19 07:31:00;;;;;;;2.65;2.45;;;9.50;99.90;;;;;;4412334;26;20401;-73
2024/04/19 07:33:01;;;;;;;3.33;2.60;;;9.60;99.90;;;;;;4436549;26;20020;-73
2024/04/19 07:35:02;;;;;;;3.10;2.63;;;9.60;99.90;;;;;;4442267;26;20000;-73
2024/04/19 07:37:02;;;;;;;3.42;2.50;;;9.60;99.90;;;;;;4443305;26;20027;-74
2024/04/19 07:39:03;;;;;;;5.35;2.95;;;9.60;99.90;;;;;;4437971;26;20449;-73
2024/04/19 07:41:04;;;;;;;2.67;2.35;;;9.70;99.90;;;;;;4406139;26;20395;-73
2024/04/19 07:43:04;;;;;;;3.95;3.05;;;9.70;99.90;;;;;;4435446;26;20089;-74
2024/04/19 07:45:07;;;;;;;3.75;2.70;;;9.70;99.90;;;;;;4438019;26;20098;-75
2024/04/19 07:47:08;;;;;;;7.68;3.05;;;9.70;99.90;;;;;;4443599;26;20023;-74
2024/04/19 07:49:09;;;;;;;3.63;2.83;;;9.70;99.90;;;;;;4441672;26;20355;-73
2024/04/19 07:51:09;;;;;;;7.03;4.13;;;9.70;99.90;;;;;;4412764;26;20005;-73
2024/04/19 07:53:10;;;;;;;4.72;3.25;;;9.80;99.90;;;;;;4411857;26;20509;-73
2024/04/19 07:55:10;;;;;;;3.72;3.05;;;9.80;99.90;;;;;;4403353;26;20027;-72
2024/04/19 07:57:11;;;;;;;4.80;2.97;;;9.90;99.90;;;;;;4443846;26;20011;-74
2024/04/19 07:59:12;;;;;;;2.65;2.42;;;9.90;99.90;;;;;;4441870;26;20530;-73
2024/04/19 08:01:12;;;;;;;5.55;3.20;;;10.00;99.90;;;;;;4438030;26;20137;-73
2024/04/19 08:03:13;;;;;;;3.78;3.03;;;10.00;99.90;;;;;;4445378;26;20044;-73
2024/04/19 08:05:14;;;;;;;3.85;3.00;;;10.20;99.90;;;;;;4409730;26;20766;-73
2024/04/19 08:07:14;;;;;;;5.90;3.42;;;10.20;99.90;;;;;;4413135;26;20020;-73
2024/04/19 08:09:15;;;;;;;5.05;4.20;;;10.20;99.90;;;;;;4440193;26;20004;-70
2024/04/19 08:11:16;;;;;;;4.38;3.33;;;10.20;99.90;;;;;;4439151;26;20439;-72
2024/04/19 08:13:17;;;;;;;7.22;4.47;;;10.30;99.90;;;;;;4441341;26;20012;-73
2024/04/19 08:15:17;;;;;;;6.07;3.55;;;10.30;99.90;;;;;;4444348;26;20020;-74
2024/04/19 08:17:18;;;;;;;3.38;2.97;;;10.30;99.90;;;;;;4445143;26;20008;-73
2024/04/19 08:19:19;;;;;;;4.43;3.60;;;10.40;99.90;;;;;;4443260;26;20012;-73
2024/04/19 08:21:19;;;;;;;7.38;4.60;;;10.40;99.90;;;;;;4443636;26;20048;-74
2024/04/19 08:23:20;;;;;;;7.32;3.55;;;10.30;99.90;;;;;;4449265;26;20015;-73
2024/04/19 08:25:21;;;;;;;3.92;3.05;;;10.40;99.90;;;;;;4444596;26;20093;-73
2024/04/19 08:27:23;;;;;;;4.53;2.88;;;10.30;99.90;;;;;;4443020;26;20052;-74
2024/04/19 08:29:24;;;;;;;;;;;10.30;99.90;;;;;;4441327;26;20561;-65
2024/04/19 08:31:25;;;;;;;7.38;3.15;;;10.30;99.90;;;;;;4436235;26;19933;-60
2024/04/19 08:33:25;;;;;;;4.93;3.30;;;10.30;99.90;;;;;;4435872;26;20058;-60
2024/04/19 08:35:26;;;;;;;7.30;2.75;;;10.30;99.90;;;;;;4408117;26;20012;-60
2024/04/19 08:37:27;;;;;;;6.32;2.90;;;10.40;99.90;;;;;;4442688;26;20093;-60
2024/04/19 08:39:28;;;;;;;5.82;2.97;;;10.40;99.90;;;;;;4437934;26;20027;-62
2024/04/19 08:41:30;;;;;;;5.22;3.22;;;10.40;99.90;;;;;;4440349;26;20023;-61
2024/04/19 08:43:33;;;;;;;6.43;3.95;;;10.40;99.90;;;;;;4443338;26;20426;-60
2024/04/19 08:45:34;;;;;;;6.40;3.88;;;10.40;99.90;;;;;;4441179;26;20000;-60
2024/04/19 08:47:36;;;;;;;6.13;3.95;;;10.50;99.90;;;;;;4446255;26;20015;-60
2024/04/19 08:49:38;;;;;;;9.20;4.13;;;10.40;99.90;;;;;;4446313;26;20000;-60
2024/04/19 08:51:39;;;;;;;5.93;4.05;;;10.40;99.90;;;;;;4410557;26;20048;-60
2024/04/19 08:53:42;;;;;;;4.00;3.13;;;10.50;99.90;;;;;;4443745;26;20073;-60
2024/04/19 08:55:44;;;;;;;4.03;2.95;;;10.40;99.90;;;;;;4438424;26;20008;-60
2024/04/19 08:57:45;;;;;;;4.50;3.25;;;10.50;99.90;;;;;;4428764;26;20031;-67
2024/04/19 08:59:46;;;;;;;4.55;3.28;;;10.40;99.90;;;;;;4437978;26;20340;-64
2024/04/19 09:01:47;;;;;;;4.43;3.00;;;10.40;99.90;;;;;;4438949;26;20012;-73
2024/04/19 09:03:48;;;;;;;6.13;2.85;;;10.40;99.90;;;;;;4410869;26;20005;-66
2024/04/19 09:05:48;;;;;;;4.63;2.08;;;10.40;99.90;;;;;;4444614;26;20375;-66
2024/04/19 09:07:49;;;;;;;2.58;1.90;;;10.50;99.90;;;;;;4442091;26;20004;-66
2024/04/19 09:09:52;;;;;;;5.18;2.50;;;10.50;99.90;;;;;;4444593;26;20052;-66
2024/04/19 09:11:54;;;;;;;3.13;2.08;;;10.50;99.90;;;;;;4408546;26;20019;-66
2024/04/19 09:13:55;;;;;;;4.27;2.20;;;10.60;99.90;;;;;;4438426;26;20012;-66
2024/04/19 09:15:56;;;;;;;3.97;2.00;;;10.60;99.90;;;;;;4437874;26;20096;-66
2024/04/19 09:17:59;;;;;;;4.35;2.10;;;10.60;99.90;;;;;;4409260;26;20064;-66
2024/04/19 09:20:00;;;;;;;5.13;2.38;;;10.60;99.90;;;;;;4407270;26;20012;-66
2024/04/19 09:22:00;;;;;;;3.50;1.80;;;10.70;99.90;;;;;;4409615;26;20036;-73
2024/04/19 09:24:01;;;;;;;4.53;2.22;;;10.70;99.90;;;;;;4442444;26;20086;-71
2024/04/19 09:26:02;;;;;;;5.10;2.17;;;10.70;99.90;;;;;;4440700;26;20000;-73
2024/04/19 09:28:03;;;;;;;3.17;1.90;;;10.70;99.90;;;;;;4440944;26;20080;-72
2024/04/19 09:30:04;;;;;;;5.10;2.05;;;10.70;99.90;;;;;;4407752;26;20005;-73
2024/04/19 09:32:06;;;;;;;3.53;1.70;;;10.70;99.90;;;;;;4412723;26;20063;-73
2024/04/19 09:34:06;;;;;;;4.57;1.90;;;10.70;99.90;;;;;;4443842;26;20022;-73
2024/04/19 09:36:08;;;;;;;4.95;2.03;;;10.80;99.90;;;;;;4434528;26;20004;-73
2024/04/19 09:38:09;;;;;;;5.85;1.80;;;10.80;99.90;;;;;;4441168;26;20036;-73
2024/04/19 09:40:11;;;;;;;5.50;1.65;;;10.80;99.90;;;;;;4443843;26;20344;-71
2024/04/19 09:42:12;;;;;;;3.57;1.57;;;10.90;99.90;;;;;;4408990;26;20070;-71
2024/04/19 09:44:15;;;;;;;3.95;1.50;;;10.90;99.90;;;;;;4441456;26;20012;-70
2024/04/19 09:46:39;;;;;;;3.97;1.70;;;11.00;99.90;;;;;;4443004;26;20019;-70
2024/04/19 09:48:45;;;;;;;3.03;1.45;;;11.00;99.90;;;;;;4439449;26;20004;-65
2024/04/19 09:50:50;;;;;;;5.28;1.80;;;11.00;99.90;;;;;;4439444;26;20036;-73
2024/04/19 09:52:54;;;;;;;4.10;1.35;;;11.00;99.90;;;;;;4438965;26;20000;-65
2024/04/19 09:55:08;;;;;;;4.55;0.90;;;11.00;99.90;;;;;;4444634;26;20012;-72
2024/04/19 09:57:10;;;;;;;2.47;0.63;;;10.90;99.90;;;;;;4442542;26;20064;-72
2024/04/19 09:59:12;;;;;;;2.75;0.60;;;10.70;99.90;;;;;;4441052;26;20019;-61
2024/04/19 10:01:14;;;;;;;1.38;0.50;;;10.70;99.90;;;;;;4431965;26;20081;-66
2024/04/19 10:03:18;;;;;;;2.45;0.63;;;10.60;99.90;;;;;;4440529;26;20004;-61
2024/04/19 10:05:19;;;;;;;3.20;0.70;;;10.60;99.90;;;;;;4442429;26;20055;-71
2024/04/19 10:07:20;;;;;;;1.90;0.40;;;10.60;99.90;;;;;;4443502;26;20476;-65
2024/04/19 10:09:25;;;;;;;1.45;0.45;;;10.60;99.90;;;;;;4442447;26;20051;-66
2024/04/19 10:11:26;;;;;;;2.13;0.57;;;10.70;99.90;;;;;;4442911;26;20008;-65
2024/04/19 10:13:30;;;;;;;0.70;0.40;;;10.90;99.90;;;;;;4445377;26;20028;-68
2024/04/19 10:15:32;;;;;;;2.83;0.60;;;10.90;99.90;;;;;;4411640;26;20009;-68
2024/04/19 10:17:32;;;;;;;1.80;0.68;;;10.90;99.90;;;;;;4444262;26;20022;-68
2024/04/19 10:19:35;;;;;;;2.47;0.55;;;11.00;99.90;;;;;;4443081;26;20375;-67
2024/04/19 10:21:39;;;;;;;2.80;0.47;;;11.00;99.90;;;;;;4441880;26;20476;-68
2024/04/19 10:23:40;;;;;;;;;;;11.00;99.90;;;;;;4443042;26;20013;-67
2024/04/19 10:25:41;;;;;;;1.05;0.40;;;11.00;99.90;;;;;;4407968;26;19945;-68
2024/04/19 10:27:45;;;;;;;0.68;0.43;;;10.90;99.90;;;;;;4444653;26;20394;-68
2024/04/19 10:29:48;;;;;;;1.70;0.50;;;10.90;99.90;;;;;;4439852;26;20019;-68
2024/04/19 10:31:51;;;;;;;0.35;0.20;;;10.90;99.90;;;;;;4440505;26;20030;-68
2024/04/19 10:33:53;;;;;;;;;;;10.80;99.90;;;;;;4413663;26;20005;-68
2024/04/19 10:35:53;;;;;;;1.15;0.40;;;10.90;99.90;;;;;;4399814;26;20358;-68
2024/04/19 10:37:54;;;;;;;1.95;0.50;;;10.90;99.90;;;;;;4444095;26;20023;-68
2024/04/19 10:39:54;;;;;;;1.88;0.60;;;10.90;99.90;;;;;;4442795;26;20027;-68
2024/04/19 10:41:55;;;;;;;1.40;0.50;;;10.80;99.90;;;;;;4437198;26;20058;-68
2024/04/19 10:43:56;;;;;;;2.00;0.73;;;10.80;99.90;;;;;;4434721;26;20023;-68